Cincinnati, Ohio
Current Conditions -  °F | °C
As of 7:53 PM on Monday 22 Dec 2014 (Local Time) from KLUK Reporting Station
Scattered Clouds Scattered Clouds  
Wind Chill:   Ceiling: Unl
Heat Index:   Visibility: 10mi
Dew Point:   Wind: 5mph
Humidity: 71%   Direction: 50°NE
Pressure: 29.8"   Gusts: NA
Location:  39.11°N, 84.5°W
Report Text: KLUK 230053Z 05004KT 10SM SCT090 08/03 A2980 RMK AO2 SLP093 T00830033
Loading
Personal Weather Stations






























Interactive Weather Map New forecast layout! Learn more

10-Day Weather Forecast

Advertisements
Track Severe Weather on mobile